createdAt,value
2018-11-29T00:02:09.290Z,80.60
2018-11-29T00:04:36.815Z,80.89
2018-11-29T00:07:04.765Z,80.81
2018-11-29T00:09:38.312Z,80.42
2018-11-29T00:12:06.810Z,80.81
2018-11-29T00:14:35.356Z,80.24
2018-11-29T00:17:02.850Z,80.21
2018-11-29T00:19:30.448Z,80.38
2018-11-29T00:21:57.962Z,80.70
2018-11-29T00:24:25.420Z,80.69
2018-11-29T00:26:52.876Z,80.70
2018-11-29T00:29:20.520Z,80.83
2018-11-29T00:31:48.238Z,80.67
2018-11-29T00:34:15.692Z,79.67
2018-11-29T00:36:43.301Z,79.37
2018-11-29T00:39:10.696Z,79.87
2018-11-29T00:41:38.139Z,80.15
2018-11-29T00:44:05.768Z,80.23
2018-11-29T00:46:33.208Z,80.08
2018-11-29T00:49:00.617Z,80.07
2018-11-29T00:51:28.032Z,80.07
2018-11-29T00:53:55.752Z,80.26
2018-11-29T00:56:23.144Z,79.74
2018-11-29T00:58:50.534Z,79.77
2018-11-29T01:01:18.108Z,79.53
2018-11-29T01:03:45.500Z,80.05
2018-11-29T01:06:12.909Z,80.42
2018-11-29T01:08:40.348Z,80.38
2018-11-29T01:11:07.868Z,80.09
2018-11-29T01:13:35.284Z,79.97
2018-11-29T01:16:02.945Z,79.95
2018-11-29T01:18:30.490Z,79.53
2018-11-29T01:20:57.886Z,79.45
2018-11-29T01:23:25.333Z,79.21
2018-11-29T01:25:52.809Z,79.46
2018-11-29T01:28:20.321Z,79.64
2018-11-29T01:30:47.736Z,79.38
2018-11-29T01:33:15.221Z,79.35
2018-11-29T01:35:42.666Z,79.62
2018-11-29T01:38:10.096Z,79.25
2018-11-29T01:40:37.594Z,79.37
2018-11-29T01:43:05.553Z,79.59
2018-11-29T01:45:33.148Z,79.60
2018-11-29T01:48:00.556Z,79.71
2018-11-29T01:50:28.030Z,79.40
2018-11-29T01:52:55.492Z,79.50
2018-11-29T01:55:22.942Z,80.11
2018-11-29T01:57:50.874Z,80.34
2018-11-29T02:00:18.547Z,80.08
2018-11-29T02:02:50.124Z,79.99
2018-11-29T02:05:17.755Z,79.90
2018-11-29T02:07:45.261Z,79.61
2018-11-29T02:10:19.407Z,78.77
2018-11-29T02:12:46.878Z,78.17
2018-11-29T02:15:14.425Z,77.74
2018-11-29T02:17:41.956Z,77.90
2018-11-29T02:20:12.955Z,78.69
2018-11-29T02:22:40.409Z,79.03
2018-11-29T02:25:07.883Z,79.04
2018-11-29T02:27:36.243Z,78.66
2018-11-29T02:30:05.976Z,78.59
2018-11-29T02:32:33.405Z,78.61
2018-11-29T02:35:00.942Z,78.99
2018-11-29T02:37:28.371Z,78.93
2018-11-29T02:39:55.810Z,79.09
2018-11-29T02:42:23.642Z,79.09
2018-11-29T02:44:51.064Z,78.93
2018-11-29T02:47:18.483Z,79.25
2018-11-29T02:49:45.946Z,78.86
2018-11-29T02:52:13.354Z,78.61
2018-11-29T02:54:40.806Z,78.72
2018-11-29T02:57:08.260Z,78.80
2018-11-29T02:59:35.697Z,77.77
2018-11-29T03:02:03.189Z,78.11
2018-11-29T03:04:30.621Z,78.56
2018-11-29T03:06:58.039Z,77.95
2018-11-29T03:09:25.452Z,77.96
2018-11-29T03:11:53.437Z,77.92
2018-11-29T03:14:20.945Z,78.09
2018-11-29T03:16:48.502Z,77.90
2018-11-29T03:19:16.010Z,77.65
2018-11-29T03:21:43.428Z,78.34
2018-11-29T03:24:10.905Z,78.35
2018-11-29T03:26:38.798Z,78.22
2018-11-29T03:29:06.739Z,78.21
2018-11-29T03:31:34.156Z,78.61
2018-11-29T03:34:01.718Z,78.45
2018-11-29T03:36:29.192Z,78.11
2018-11-29T03:38:56.633Z,78.71
2018-11-29T03:41:24.064Z,78.90
2018-11-29T03:43:51.508Z,79.00
2018-11-29T03:46:18.966Z,78.78
2018-11-29T03:48:46.406Z,78.41
2018-11-29T03:51:13.939Z,78.73
2018-11-29T03:53:41.328Z,77.84
2018-11-29T03:56:08.900Z,78.00
2018-11-29T03:58:36.352Z,77.71
2018-11-29T04:01:03.971Z,77.89
2018-11-29T04:03:31.442Z,77.88
2018-11-29T04:05:58.823Z,78.04
2018-11-29T04:08:26.266Z,78.11
2018-11-29T04:10:53.754Z,77.89
2018-11-29T04:13:21.295Z,77.34
2018-11-29T04:15:48.725Z,77.46
2018-11-29T04:18:16.272Z,77.41
2018-11-29T04:20:44.049Z,77.65
2018-11-29T04:23:11.522Z,77.56
2018-11-29T04:25:38.972Z,77.54
2018-11-29T04:28:06.448Z,77.41
2018-11-29T04:30:33.850Z,76.95
2018-11-29T04:33:01.359Z,76.96
2018-11-29T04:35:28.731Z,77.24
2018-11-29T04:37:56.196Z,77.02
2018-11-29T04:40:23.792Z,76.37
2018-11-29T04:42:51.244Z,76.61
2018-11-29T04:45:18.731Z,76.10
2018-11-29T04:47:47.010Z,76.22
2018-11-29T04:50:15.788Z,76.24
2018-11-29T04:52:49.955Z,76.08
2018-11-29T04:55:17.407Z,76.29
2018-11-29T04:57:44.911Z,76.67
2018-11-29T05:00:14.468Z,76.91
2018-11-29T05:02:41.970Z,76.60
2018-11-29T05:05:10.295Z,76.09
2018-11-29T05:07:37.838Z,76.57
2018-11-29T05:10:07.209Z,76.46
2018-11-29T05:12:34.790Z,76.54
2018-11-29T05:15:02.305Z,76.46
2018-11-29T05:17:29.856Z,75.95
2018-11-29T05:19:57.248Z,75.79
2018-11-29T05:22:24.684Z,76.02
2018-11-29T05:24:52.091Z,76.35
2018-11-29T05:27:19.515Z,75.62
2018-11-29T05:29:46.959Z,75.78
2018-11-29T05:32:14.446Z,75.22
2018-11-29T05:34:41.993Z,75.07
2018-11-29T05:37:09.465Z,75.26
2018-11-29T05:39:36.815Z,74.97
2018-11-29T05:42:04.277Z,75.04
2018-11-29T05:44:31.855Z,75.40
2018-11-29T05:46:59.264Z,75.63
2018-11-29T05:49:26.646Z,76.05
2018-11-29T05:51:54.153Z,76.01
2018-11-29T05:54:21.759Z,76.48
2018-11-29T05:56:49.182Z,77.04
2018-11-29T05:59:16.637Z,77.56
2018-11-29T06:01:44.899Z,77.06
2018-11-29T06:04:12.585Z,76.91
2018-11-29T06:06:40.491Z,77.39
2018-11-29T06:09:09.785Z,77.52
2018-11-29T06:11:38.583Z,78.05
2018-11-29T06:14:07.288Z,77.26
2018-11-29T06:16:35.811Z,77.34
2018-11-29T06:19:03.404Z,77.33
2018-11-29T06:21:30.882Z,77.78
2018-11-29T06:23:58.304Z,77.41
2018-11-29T06:26:25.875Z,77.18
2018-11-29T06:28:53.512Z,76.92
2018-11-29T06:31:21.080Z,76.93
2018-11-29T06:33:48.616Z,76.53
2018-11-29T06:36:16.190Z,76.80
2018-11-29T06:38:43.694Z,76.67
2018-11-29T06:41:11.120Z,76.54
2018-11-29T06:43:38.700Z,76.57
2018-11-29T06:46:06.400Z,76.52
2018-11-29T06:48:33.793Z,76.01
2018-11-29T06:51:01.232Z,76.19
2018-11-29T06:53:34.231Z,76.21
2018-11-29T06:56:01.806Z,75.72
2018-11-29T06:58:29.237Z,76.00
2018-11-29T07:01:00.010Z,76.72
2018-11-29T07:03:28.923Z,76.07
2018-11-29T07:05:55.137Z,75.85
2018-11-29T07:08:22.551Z,75.56
2018-11-29T07:10:50.199Z,75.85
2018-11-29T07:13:17.667Z,76.26
2018-11-29T07:15:45.249Z,75.97
2018-11-29T07:18:12.713Z,76.13
2018-11-29T07:20:40.180Z,76.11
2018-11-29T07:23:07.757Z,75.61
2018-11-29T07:25:35.505Z,75.54
2018-11-29T07:28:03.048Z,74.95
2018-11-29T07:30:30.558Z,75.12
2018-11-29T07:32:58.153Z,74.70
2018-11-29T07:35:25.658Z,74.95
2018-11-29T07:37:53.306Z,75.16
2018-11-29T07:40:20.849Z,74.72
2018-11-29T07:42:50.191Z,74.80
2018-11-29T07:45:18.797Z,73.93
2018-11-29T07:47:46.631Z,74.13
2018-11-29T07:50:18.193Z,74.63
2018-11-29T07:52:45.672Z,74.22
2018-11-29T07:55:16.474Z,74.61
2018-11-29T07:57:44.484Z,74.27
2018-11-29T08:00:13.376Z,74.09
2018-11-29T08:02:40.966Z,73.50
2018-11-29T08:05:10.482Z,73.56
2018-11-29T08:07:38.516Z,73.11
2018-11-29T08:10:08.640Z,72.83
2018-11-29T08:12:36.142Z,72.60
2018-11-29T08:15:03.797Z,72.16
2018-11-29T08:17:31.345Z,71.63
2018-11-29T08:19:58.729Z,70.92
2018-11-29T08:22:26.197Z,70.73
2018-11-29T08:24:53.739Z,71.00
2018-11-29T08:27:21.173Z,71.30
2018-11-29T08:29:48.847Z,70.73
2018-11-29T08:32:16.365Z,70.97
2018-11-29T08:34:43.827Z,70.67
2018-11-29T08:37:11.268Z,70.28
2018-11-29T08:39:38.777Z,70.27
2018-11-29T08:42:06.353Z,70.95
2018-11-29T08:44:33.859Z,70.50
2018-11-29T08:47:01.359Z,70.56
2018-11-29T08:49:28.734Z,70.50
2018-11-29T08:51:56.175Z,70.33
2018-11-29T08:54:23.690Z,70.41
2018-11-29T08:56:51.142Z,70.47
2018-11-29T08:59:18.627Z,70.17
2018-11-29T09:01:46.108Z,69.97
2018-11-29T09:04:13.652Z,69.68
2018-11-29T09:06:41.285Z,69.51
2018-11-29T09:09:08.787Z,69.31
2018-11-29T09:11:36.355Z,69.06
2018-11-29T09:14:04.194Z,68.14
2018-11-29T09:16:31.862Z,68.10
2018-11-29T09:18:59.266Z,67.91
2018-11-29T09:21:26.974Z,67.77
2018-11-29T09:23:54.488Z,67.80
2018-11-29T09:26:22.039Z,67.69
2018-11-29T09:28:49.623Z,66.85
2018-11-29T09:31:17.199Z,67.24
2018-11-29T09:33:44.673Z,67.04
2018-11-29T09:36:12.133Z,66.55
2018-11-29T09:38:39.651Z,66.06
2018-11-29T09:41:07.105Z,66.14
2018-11-29T09:43:34.569Z,65.40
2018-11-29T09:46:02.167Z,66.09
2018-11-29T09:48:29.739Z,64.81
2018-11-29T09:50:57.423Z,64.08
2018-11-29T09:53:24.903Z,63.47
2018-11-29T09:55:52.747Z,63.87
2018-11-29T09:58:20.233Z,63.95
2018-11-29T10:00:47.851Z,63.87
2018-11-29T10:03:15.897Z,62.31
2018-11-29T10:05:46.096Z,61.64
2018-11-29T10:08:16.790Z,61.77
2018-11-29T10:10:44.398Z,61.17
2018-11-29T10:13:11.958Z,61.05
2018-11-29T10:15:39.544Z,60.25
2018-11-29T10:18:08.015Z,60.57
2018-11-29T10:20:35.456Z,61.31
2018-11-29T10:23:02.942Z,61.54
2018-11-29T10:25:30.355Z,62.28
2018-11-29T10:28:01.111Z,61.91
2018-11-29T10:31:02.074Z,62.35
2018-11-29T10:33:29.619Z,62.58
2018-11-29T10:35:59.204Z,62.45
2018-11-29T10:38:25.223Z,62.64
2018-11-29T10:40:53.038Z,62.61
2018-11-29T10:43:20.687Z,62.90
2018-11-29T10:45:48.124Z,63.55
2018-11-29T10:48:17.255Z,64.23
2018-11-29T10:50:44.689Z,63.71
2018-11-29T10:53:12.148Z,63.72
2018-11-29T10:55:39.606Z,64.25
2018-11-29T10:58:07.162Z,64.91
2018-11-29T11:01:41.208Z,64.67
2018-11-29T11:04:08.724Z,64.24
2018-11-29T11:06:36.220Z,64.11
2018-11-29T11:09:06.828Z,64.52
2018-11-29T11:11:34.320Z,64.27
2018-11-29T11:14:01.760Z,64.54
2018-11-29T11:16:29.311Z,64.74
2018-11-29T11:18:56.798Z,65.15
2018-11-29T11:21:24.257Z,65.05
2018-11-29T11:23:51.900Z,64.81
2018-11-29T11:26:19.437Z,64.12
2018-11-29T11:28:47.006Z,64.14
2018-11-29T11:31:14.456Z,63.91
2018-11-29T11:33:42.052Z,64.08
2018-11-29T11:36:09.584Z,63.50
2018-11-29T11:38:37.098Z,64.00
2018-11-29T11:41:04.788Z,63.44
2018-11-29T11:43:32.396Z,63.37
2018-11-29T11:45:59.984Z,63.20
2018-11-29T11:48:27.480Z,62.98
2018-11-29T11:50:54.907Z,62.60
2018-11-29T11:53:22.366Z,62.80
2018-11-29T11:55:53.535Z,63.05
2018-11-29T11:58:17.300Z,63.26
2018-11-29T12:00:44.914Z,63.28
2018-11-29T12:03:13.878Z,62.83
2018-11-29T12:05:41.366Z,62.78
2018-11-29T12:08:08.929Z,62.85
2018-11-29T12:10:37.035Z,62.82
2018-11-29T12:13:05.139Z,63.20
2018-11-29T12:15:32.675Z,63.42
2018-11-29T12:18:00.241Z,62.91
2018-11-29T12:20:27.692Z,63.77
2018-11-29T12:22:55.202Z,63.76
2018-11-29T12:25:23.146Z,63.23
2018-11-29T12:27:51.491Z,63.28
2018-11-29T12:30:21.267Z,63.76
2018-11-29T12:32:48.881Z,63.79
2018-11-29T12:35:16.411Z,63.44
2018-11-29T12:37:44.021Z,63.81
2018-11-29T12:40:12.579Z,63.70
2018-11-29T12:42:40.161Z,63.64
2018-11-29T12:45:09.918Z,63.28
2018-11-29T12:47:37.514Z,63.51
2018-11-29T12:50:08.692Z,64.03
2018-11-29T12:52:36.136Z,63.48
2018-11-29T12:55:03.958Z,63.28
2018-11-29T12:57:31.428Z,63.64
2018-11-29T12:59:58.913Z,64.36
2018-11-29T13:02:26.456Z,64.58
2018-11-29T13:04:54.083Z,64.24
2018-11-29T13:07:21.562Z,63.88
2018-11-29T13:09:48.984Z,64.13
2018-11-29T13:12:16.428Z,63.53
2018-11-29T13:14:43.960Z,64.45
2018-11-29T13:17:11.450Z,64.09
2018-11-29T13:19:39.074Z,63.35
2018-11-29T13:22:06.609Z,63.81
2018-11-29T13:24:34.090Z,63.24
2018-11-29T13:27:01.576Z,63.82
2018-11-29T13:29:29.154Z,64.01
2018-11-29T13:31:56.778Z,64.49
2018-11-29T13:34:24.266Z,64.75
2018-11-29T13:36:51.826Z,64.65
2018-11-29T13:39:19.338Z,64.75
2018-11-29T13:41:46.836Z,64.54
2018-11-29T13:44:14.340Z,64.14
2018-11-29T13:46:41.824Z,64.00
2018-11-29T13:49:09.321Z,64.00
2018-11-29T13:51:36.755Z,64.01
2018-11-29T13:54:04.205Z,64.29
2018-11-29T13:56:31.857Z,64.18
2018-11-29T13:58:59.353Z,63.96
2018-11-29T14:01:26.895Z,63.49
2018-11-29T14:03:54.338Z,63.68
2018-11-29T14:06:21.817Z,63.72
2018-11-29T14:08:49.446Z,64.32
2018-11-29T14:11:16.907Z,64.74
2018-11-29T14:13:44.507Z,64.29
2018-11-29T14:16:12.056Z,63.90
2018-11-29T14:18:39.899Z,64.29
2018-11-29T14:21:07.585Z,63.66
2018-11-29T14:23:35.067Z,63.25
2018-11-29T14:26:02.557Z,63.89
2018-11-29T14:28:30.041Z,64.26
2018-11-29T14:30:57.600Z,64.58
2018-11-29T14:33:25.223Z,65.09
2018-11-29T14:35:52.827Z,65.12
2018-11-29T14:38:20.273Z,66.62
2018-11-29T14:40:47.783Z,66.98
2018-11-29T14:43:15.217Z,67.36
2018-11-29T14:45:42.670Z,66.63
2018-11-29T14:48:10.308Z,66.78
2018-11-29T14:50:41.652Z,65.88
2018-11-29T14:53:09.701Z,66.26
2018-11-29T14:55:38.219Z,65.21
2018-11-29T14:58:07.029Z,65.83
2018-11-29T15:00:38.116Z,66.10
2018-11-29T15:03:10.157Z,65.63
2018-11-29T15:05:37.743Z,65.81
2018-11-29T15:08:06.523Z,66.33
2018-11-29T15:10:34.133Z,67.07
2018-11-29T15:13:01.581Z,67.76
2018-11-29T15:15:29.067Z,67.75
2018-11-29T15:17:56.477Z,67.83
2018-11-29T15:20:28.448Z,68.15
2018-11-29T15:22:55.969Z,68.00
2018-11-29T15:25:23.414Z,68.03
2018-11-29T15:27:51.020Z,68.16
2018-11-29T15:30:20.494Z,68.15
2018-11-29T15:32:47.219Z,66.62
2018-11-29T15:35:14.930Z,66.05
2018-11-29T15:37:42.399Z,66.70
2018-11-29T15:40:13.166Z,67.01
2018-11-29T15:42:40.765Z,66.52
2018-11-29T15:45:13.045Z,66.31
2018-11-29T15:47:40.919Z,66.50
2018-11-29T15:50:10.039Z,65.95
2018-11-29T15:52:37.545Z,66.45
2018-11-29T15:55:07.142Z,66.14
2018-11-29T15:57:35.117Z,65.79
2018-11-29T16:00:02.256Z,65.17
2018-11-29T16:02:29.760Z,65.17
2018-11-29T16:04:57.215Z,65.39
2018-11-29T16:07:24.640Z,65.06
2018-11-29T16:09:52.132Z,64.92
2018-11-29T16:12:19.567Z,64.90
2018-11-29T16:14:47.839Z,64.61
2018-11-29T16:17:15.778Z,64.25
2018-11-29T16:19:43.290Z,64.31
2018-11-29T16:22:10.856Z,63.79
2018-11-29T16:24:38.336Z,63.65
2018-11-29T16:27:06.280Z,63.32
2018-11-29T16:29:33.848Z,63.65
2018-11-29T16:32:01.516Z,63.79
2018-11-29T16:34:28.936Z,63.98
2018-11-29T16:36:56.423Z,63.98
2018-11-29T16:39:24.014Z,63.44
2018-11-29T16:41:51.521Z,63.96
2018-11-29T16:44:18.961Z,63.83
2018-11-29T16:46:46.682Z,63.92
2018-11-29T16:49:14.100Z,63.27
2018-11-29T16:51:41.541Z,63.65
2018-11-29T16:54:08.985Z,64.00
2018-11-29T16:56:36.474Z,64.35
2018-11-29T16:59:04.233Z,64.46
2018-11-29T17:01:31.703Z,64.24
2018-11-29T17:03:59.200Z,64.38
2018-11-29T17:06:26.855Z,64.39
2018-11-29T17:08:54.363Z,64.53
2018-11-29T17:11:21.795Z,65.02
2018-11-29T17:13:49.273Z,65.23
2018-11-29T17:16:16.857Z,64.92
2018-11-29T17:18:44.393Z,64.68
2018-11-29T17:21:11.875Z,64.86
2018-11-29T17:23:39.399Z,64.78
2018-11-29T17:26:07.105Z,64.87
2018-11-29T17:28:34.559Z,64.57
2018-11-29T17:31:02.109Z,64.34
2018-11-29T17:33:29.738Z,64.13
2018-11-29T17:35:57.213Z,64.24
2018-11-29T17:38:24.672Z,64.20
2018-11-29T17:40:52.221Z,64.71
2018-11-29T17:43:19.809Z,64.89
2018-11-29T17:45:47.635Z,65.34
2018-11-29T17:48:15.113Z,65.47
2018-11-29T17:50:43.924Z,65.77
2018-11-29T17:53:11.415Z,66.41
2018-11-29T17:55:39.017Z,66.52
2018-11-29T17:58:09.250Z,66.48
2018-11-29T18:00:36.869Z,65.71
2018-11-29T18:03:05.572Z,65.17
2018-11-29T18:05:39.740Z,65.83
2018-11-29T18:08:07.272Z,65.52
2018-11-29T18:10:36.860Z,65.98
2018-11-29T18:13:23.304Z,66.71
2018-11-29T18:15:50.992Z,66.00
2018-11-29T18:18:18.447Z,65.55
2018-11-29T18:20:46.038Z,65.85
2018-11-29T18:23:13.469Z,66.43
2018-11-29T18:25:40.903Z,66.28
2018-11-29T18:28:09.272Z,67.19
2018-11-29T18:30:36.767Z,67.05
2018-11-29T18:33:04.836Z,67.42
2018-11-29T18:35:32.364Z,67.56
2018-11-29T18:37:59.829Z,67.30
2018-11-29T18:40:27.381Z,67.38
2018-11-29T18:42:56.294Z,67.66
2018-11-29T18:45:24.036Z,67.92
2018-11-29T18:47:52.288Z,68.24
2018-11-29T18:50:21.936Z,68.29
2018-11-29T18:52:49.653Z,68.05
2018-11-29T18:55:17.641Z,67.97
2018-11-29T18:57:45.232Z,67.32
2018-11-29T19:00:43.500Z,67.54
2018-11-29T19:03:11.057Z,67.70
2018-11-29T19:05:38.506Z,67.68
2018-11-29T19:08:07.570Z,67.60
2018-11-29T19:10:35.318Z,67.29
2018-11-29T19:13:04.563Z,67.12
2018-11-29T19:15:32.133Z,66.96
2018-11-29T19:17:59.652Z,66.91
2018-11-29T19:20:27.245Z,67.30
2018-11-29T19:22:55.049Z,67.48
2018-11-29T19:25:22.595Z,67.42
2018-11-29T19:27:50.057Z,66.87
2018-11-29T19:30:26.540Z,66.63
2018-11-29T19:32:58.272Z,66.88
2018-11-29T19:35:25.946Z,67.05
2018-11-29T19:37:53.254Z,67.35
2018-11-29T19:40:20.830Z,66.79
2018-11-29T19:42:48.332Z,66.43
2018-11-29T19:45:16.001Z,66.14
2018-11-29T19:47:43.509Z,66.01
2018-11-29T19:50:17.270Z,65.69
2018-11-29T19:52:47.334Z,65.79
2018-11-29T19:55:16.750Z,66.37
2018-11-29T19:57:44.549Z,66.70
2018-11-29T20:00:13.019Z,66.32
2018-11-29T20:02:41.379Z,66.51
2018-11-29T20:05:10.232Z,66.42
2018-11-29T20:07:37.738Z,66.85
2018-11-29T20:10:08.069Z,67.43
2018-11-29T20:12:35.649Z,67.09
2018-11-29T20:15:03.244Z,66.45
2018-11-29T20:17:30.805Z,66.23
2018-11-29T20:19:58.649Z,66.73
2018-11-29T20:22:26.269Z,67.38
2018-11-29T20:24:53.718Z,67.60
2018-11-29T20:27:21.423Z,67.01
2018-11-29T20:29:48.922Z,67.37
2018-11-29T20:32:16.383Z,67.82
2018-11-29T20:34:44.186Z,67.72
2018-11-29T20:37:11.669Z,68.51
2018-11-29T20:39:39.135Z,68.19
2018-11-29T20:42:06.681Z,68.24
2018-11-29T20:44:34.281Z,68.51
2018-11-29T20:47:01.739Z,68.72
2018-11-29T20:49:29.197Z,68.37
2018-11-29T20:51:56.736Z,68.44
2018-11-29T20:54:24.321Z,67.85
2018-11-29T20:56:51.895Z,68.15
2018-11-29T20:59:19.377Z,68.90
2018-11-29T21:01:46.915Z,68.71
2018-11-29T21:04:14.355Z,68.03
2018-11-29T21:06:41.837Z,68.10
2018-11-29T21:09:11.417Z,68.46
2018-11-29T21:11:39.003Z,68.05
2018-11-29T21:14:06.848Z,68.01
2018-11-29T21:16:34.477Z,68.00
2018-11-29T21:19:02.102Z,68.25
2018-11-29T21:21:30.600Z,68.70
2018-11-29T21:23:57.140Z,69.18
2018-11-29T21:26:24.747Z,68.96
2018-11-29T21:28:52.259Z,68.72
2018-11-29T21:34:01.907Z,68.69
2018-11-29T21:36:29.353Z,68.97
2018-11-29T21:38:56.821Z,69.10
2018-11-29T21:41:24.351Z,68.61
2018-11-29T21:43:51.831Z,67.83
2018-11-29T21:46:19.359Z,68.13
2018-11-29T21:48:46.877Z,67.83
2018-11-29T21:51:14.351Z,67.83
2018-11-29T21:53:41.777Z,68.09
2018-11-29T21:56:09.449Z,68.08
2018-11-29T21:58:36.897Z,68.06
2018-11-29T22:01:04.373Z,68.65
2018-11-29T22:03:31.896Z,68.11
2018-11-29T22:05:59.396Z,68.19
2018-11-29T22:08:26.817Z,68.41
2018-11-29T22:10:54.470Z,68.16
2018-11-29T22:13:22.229Z,67.65
2018-11-29T22:15:49.741Z,67.88
2018-11-29T22:18:20.349Z,68.56
2018-11-29T22:20:49.609Z,68.90
2018-11-29T22:23:17.025Z,69.07
2018-11-29T22:25:44.639Z,69.11
2018-11-29T22:28:12.065Z,69.39
2018-11-29T22:30:39.600Z,69.59
2018-11-29T22:33:07.228Z,69.83
2018-11-29T22:35:34.672Z,69.79
2018-11-29T22:38:02.092Z,69.68
2018-11-29T22:40:29.651Z,69.64
2018-11-29T22:42:57.103Z,69.59
2018-11-29T22:45:24.515Z,68.92
2018-11-29T22:47:52.049Z,68.54
2018-11-29T22:50:19.573Z,67.89
2018-11-29T22:52:47.065Z,67.57
2018-11-29T22:55:14.553Z,67.76
2018-11-29T22:57:41.990Z,67.72
2018-11-29T23:00:12.522Z,67.91
2018-11-29T23:02:40.078Z,67.87
2018-11-29T23:05:08.548Z,67.91
2018-11-29T23:07:36.026Z,68.13
2018-11-29T23:10:04.316Z,68.15
2018-11-29T23:12:31.860Z,68.53
2018-11-29T23:14:59.292Z,69.17
2018-11-29T23:17:26.727Z,68.91
2018-11-29T23:19:54.304Z,69.37
2018-11-29T23:22:21.704Z,69.44
2018-11-29T23:24:49.324Z,69.58
2018-11-29T23:27:16.785Z,69.86
2018-11-29T23:29:44.249Z,69.38
2018-11-29T23:32:11.855Z,69.23
2018-11-29T23:34:39.257Z,69.55
2018-11-29T23:37:06.662Z,69.70
2018-11-29T23:39:34.208Z,70.60
2018-11-29T23:42:01.765Z,71.07
2018-11-29T23:44:29.172Z,71.28
2018-11-29T23:46:56.753Z,71.92
2018-11-29T23:49:24.343Z,73.15
2018-11-29T23:51:51.779Z,72.81
2018-11-29T23:54:19.269Z,72.67
2018-11-29T23:56:46.777Z,73.02
2018-11-29T23:59:14.194Z,73.45
